Time;durP1;ratioP1;P1;durP2;ratioP2;P2;SDS_P1;SDS_P2;PMS_P1;PMS_P2;Temp;Humidity;BMP_temperature;BMP_pressure;BME280_temperature;BME280_humidity;BME280_pressure;Samples;Min_cycle;Max_cycle;Signal;HPM_P1;HPM_P2
2022/08/18 00:03:05;;;;;;;11.15;6.53;;;;;;;21.74;59.28;99324.94;12231283;19;20014;-82
2022/08/18 00:07:30;;;;;;;8.68;6.57;;;;;;;21.69;59.71;99332.75;12230556;19;20003;-83
2022/08/18 00:11:35;;;;;;;9.82;6.55;;;;;;;21.60;59.58;99344.00;12205963;19;20070;-83
2022/08/18 00:15:42;;;;;;;10.45;6.68;;;;;;;21.58;59.95;99337.88;12230355;19;20006;-82
2022/08/18 00:19:49;;;;;;;9.45;5.95;;;;;;;21.61;59.86;99340.00;12206715;19;20003;-83
2022/08/18 00:23:53;;;;;;;12.98;8.32;;;;;;;21.67;59.39;99338.69;12227821;19;20010;-84
2022/08/18 00:27:54;;;;;;;8.75;7.10;;;;;;;21.70;59.60;99334.38;12230089;19;20018;-85
2022/08/18 00:31:56;;;;;;;9.07;7.32;;;;;;;21.73;59.42;99331.72;12209656;19;20024;-86
2022/08/18 00:35:58;;;;;;;8.10;6.93;;;;;;;21.77;59.69;99345.88;12231920;19;20021;-86
2022/08/18 00:40:00;;;;;;;8.05;6.82;;;;;;;21.82;59.77;99354.94;12230809;19;20014;-83
2022/08/18 00:44:03;;;;;;;10.70;6.65;;;;;;;21.91;59.41;99356.91;12207649;19;20387;-86
2022/08/18 00:48:06;;;;;;;7.88;6.10;;;;;;;21.95;59.28;99347.47;12234569;19;20491;-85
2022/08/18 00:52:12;;;;;;;9.40;6.90;;;;;;;21.98;59.59;99338.38;12234590;19;20449;-84
2022/08/18 00:56:27;;;;;;;8.05;6.32;;;;;;;22.01;59.95;99346.13;12216406;19;20010;-86
2022/08/18 01:00:28;;;;;;;10.40;7.10;;;;;;;22.05;59.89;99343.47;12233430;19;20344;-87
2022/08/18 01:04:43;;;;;;;11.20;7.78;;;;;;;22.12;60.56;99343.75;12210511;19;20011;-85
2022/08/18 01:08:45;;;;;;;13.23;7.35;;;;;;;22.17;60.75;99352.00;12233046;19;20007;-86
2022/08/18 01:12:51;;;;;;;10.85;7.32;;;;;;;22.21;61.00;99341.75;12232552;19;20018;-87
2022/08/18 01:25:59;;;;;;;10.77;7.15;;;;;;;22.36;62.51;99337.53;12221920;19;20006;-81
2022/08/18 01:30:09;;;;;;;11.02;7.57;;;;;;;22.38;62.75;99328.78;12272351;19;20054;-84
2022/08/18 01:34:10;;;;;;;13.32;7.15;;;;;;;22.35;63.33;99340.69;12268382;19;20025;-82
2022/08/18 01:38:12;;;;;;;8.52;6.43;;;;;;;22.31;64.71;99346.16;12206485;19;20080;-85
2022/08/18 01:42:18;;;;;;;10.63;6.87;;;;;;;22.29;64.67;99346.50;12225421;19;20023;-84
2022/08/18 01:46:20;;;;;;;9.90;7.35;;;;;;;22.27;65.67;99345.19;12224410;19;20236;-86
2022/08/18 01:50:21;;;;;;;8.60;6.60;;;;;;;22.25;65.72;99350.34;12201501;19;20021;-84
2022/08/18 01:54:24;;;;;;;10.73;7.43;;;;;;;22.23;65.67;99349.84;12222395;19;20017;-85
2022/08/18 01:58:29;;;;;;;8.77;6.65;;;;;;;22.21;65.84;99352.97;12223171;19;20071;-82
2022/08/18 02:02:32;;;;;;;8.63;6.32;;;;;;;22.19;66.51;99360.94;12200361;19;20022;-82
2022/08/18 02:06:34;;;;;;;9.68;6.43;;;;;;;22.14;66.60;99357.47;12223934;19;20424;-82
2022/08/18 02:10:36;;;;;;;10.68;6.40;;;;;;;22.08;66.88;99365.25;12203399;19;20023;-83
2022/08/18 02:14:38;;;;;;;9.07;6.22;;;;;;;22.00;67.66;99352.88;12224090;19;20006;-85
2022/08/18 02:18:41;;;;;;;8.88;6.47;;;;;;;21.89;68.79;99348.81;12225209;19;20031;-83
2022/08/18 02:22:49;;;;;;;8.15;5.88;;;;;;;21.88;68.08;99349.16;12203708;19;20004;-84
2022/08/18 02:26:51;;;;;;;9.45;6.05;;;;;;;21.81;68.70;99344.06;12223018;19;20026;-84
2022/08/18 02:30:52;;;;;;;7.90;6.13;;;;;;;21.72;68.99;99344.09;12224150;19;20370;-83
2022/08/18 02:34:54;;;;;;;10.90;6.47;;;;;;;21.65;69.71;99343.78;12198314;19;20027;-83
2022/08/18 02:38:56;;;;;;;7.85;6.03;;;;;;;21.61;69.43;99342.81;12222109;19;20032;-81
2022/08/18 02:43:08;;;;;;;10.80;6.32;;;;;;;21.60;70.08;99346.78;12220630;19;20021;-83
2022/08/18 02:47:10;;;;;;;9.40;6.05;;;;;;;21.62;70.07;99338.84;12198933;19;20023;-84
2022/08/18 02:51:14;;;;;;;8.13;6.18;;;;;;;21.61;70.20;99340.84;12224506;19;20018;-81
2022/08/18 02:55:16;;;;;;;8.35;5.70;;;;;;;21.60;70.49;99341.19;12220881;19;20025;-83
2022/08/18 02:59:26;;;;;;;7.27;5.20;;;;;;;21.60;70.55;99338.38;12199288;19;20006;-82
2022/08/18 03:03:32;;;;;;;9.30;5.90;;;;;;;21.60;70.49;99338.38;12221737;19;20018;-84
2022/08/18 03:07:33;;;;;;;7.75;5.63;;;;;;;21.64;70.30;99335.72;12203555;19;20018;-85
2022/08/18 03:11:41;;;;;;;7.20;5.63;;;;;;;21.68;70.44;99343.13;12225449;19;20435;-84
2022/08/18 03:15:44;;;;;;;8.15;5.78;;;;;;;21.67;70.33;99338.69;12227534;19;19998;-82
2022/08/18 03:19:45;;;;;;;9.00;5.82;;;;;;;21.66;70.62;99330.63;12218104;19;20021;-84
2022/08/18 03:23:50;;;;;;;7.80;6.00;;;;;;;21.64;70.51;99346.94;12261972;19;20105;-82
2022/08/18 03:28:03;;;;;;;10.23;6.05;;;;;;;21.58;70.95;99341.50;12247066;19;20007;-82
2022/08/18 03:32:06;;;;;;;;;;;;;;;21.51;72.29;99346.81;12226685;19;20028;-83
2022/08/18 03:36:11;;;;;;;6.93;5.75;;;;;;;21.45;71.82;99338.94;12244890;19;19907;-81
2022/08/18 03:40:12;;;;;;;8.90;5.70;;;;;;;21.47;71.36;99339.41;12245096;19;20024;-82
2022/08/18 03:44:14;;;;;;;8.20;5.77;;;;;;;21.51;71.41;99332.81;12220438;19;20114;-81
2022/08/18 03:48:16;;;;;;;8.83;5.20;;;;;;;21.52;70.99;99328.00;12244527;19;20010;-81
2022/08/18 03:52:18;;;;;;;8.63;6.30;;;;;;;21.51;71.64;99331.97;12243713;19;20022;-82
2022/08/18 03:56:23;;;;;;;9.82;5.10;;;;;;;21.52;71.62;99325.22;12222187;19;20126;-82
2022/08/18 04:00:29;;;;;;;9.07;5.45;;;;;;;21.52;71.24;99331.63;12239959;19;20014;-81
2022/08/18 04:04:31;;;;;;;10.02;6.50;;;;;;;21.52;71.43;99330.81;12219018;19;20022;-81
2022/08/18 04:08:33;;;;;;;;;;;;;;;21.49;71.81;99337.09;12245810;19;20460;-83
2022/08/18 04:12:38;;;;;;;8.93;5.60;;;;;;;21.46;71.08;99326.53;12244645;19;19923;-82
2022/08/18 04:16:40;;;;;;;9.57;5.63;;;;;;;21.48;71.38;99327.03;12221956;19;20006;-82
2022/08/18 04:20:42;;;;;;;6.95;5.82;;;;;;;21.45;71.62;99336.13;12242086;19;20014;-81
2022/08/18 04:25:00;;;;;;;7.78;5.22;;;;;;;21.44;71.24;99329.66;12243834;19;20010;-83
2022/08/18 04:29:04;;;;;;;7.40;5.28;;;;;;;21.48;71.63;99338.25;12222119;19;20010;-81
2022/08/18 04:33:06;;;;;;;7.57;5.88;;;;;;;21.47;71.61;99336.59;12230249;19;20010;-84
2022/08/18 04:37:08;;;;;;;6.63;5.22;;;;;;;21.48;71.65;99344.69;12245064;19;20315;-83
2022/08/18 04:41:12;;;;;;;9.07;5.72;;;;;;;21.47;72.19;99350.59;12212292;19;20007;-82
2022/08/18 04:45:13;;;;;;;8.95;5.75;;;;;;;21.49;71.95;99357.53;12230190;19;20064;-82
2022/08/18 04:49:17;;;;;;;8.43;5.73;;;;;;;21.49;72.05;99356.72;12243906;19;20011;-83
2022/08/18 04:57:41;;;;;;;7.15;4.95;;;;;;;21.46;73.22;99348.97;12233268;19;20002;-83
2022/08/18 05:01:44;;;;;;;8.35;5.80;;;;;;;21.48;73.36;99366.28;12212488;19;20456;-83
2022/08/18 05:05:46;;;;;;;7.72;6.00;;;;;;;21.39;74.29;99361.50;12231067;19;20015;-83
2022/08/18 05:09:48;;;;;;;10.63;5.80;;;;;;;21.35;75.36;99359.66;12231925;19;20015;-82
2022/08/18 05:13:54;;;;;;;9.05;6.63;;;;;;;21.29;75.68;99361.81;12208949;19;20003;-82
2022/08/18 05:17:56;;;;;;;9.63;5.80;;;;;;;21.17;76.99;99364.47;12234580;19;20018;-82
2022/08/18 05:21:58;;;;;;;;;;;;;;;21.11;78.02;99366.63;12234337;19;20010;-80
2022/08/18 05:26:03;;;;;;;7.75;6.38;;;;;;;21.11;77.15;99363.00;12205471;19;19914;-82
2022/08/18 05:30:06;;;;;;;9.95;6.32;;;;;;;21.08;78.06;99358.06;12231742;19;20007;-82
2022/08/18 05:34:08;;;;;;;8.73;6.22;;;;;;;21.09;79.01;99365.28;12227990;19;20362;-83
2022/08/18 05:38:31;;;;;;;7.85;5.95;;;;;;;21.15;80.00;99376.03;12207581;19;20031;-80
2022/08/18 05:42:37;;;;;;;8.40;6.28;;;;;;;21.24;79.56;99373.22;12226461;19;20013;-81
2022/08/18 05:46:42;;;;;;;8.02;6.07;;;;;;;21.37;79.95;99380.63;12205476;19;20013;-83
2022/08/18 05:50:44;;;;;;;7.97;6.15;;;;;;;21.48;79.88;99374.69;12229155;19;20002;-83
2022/08/18 05:59:16;;;;;;;12.15;6.60;;;;;;;21.63;78.85;99376.97;12205476;19;20010;-82
2022/08/18 06:03:26;;;;;;;8.93;6.82;;;;;;;21.63;79.08;99368.56;12225598;19;20014;-82
2022/08/18 06:07:34;;;;;;;16.77;6.53;;;;;;;21.65;78.32;99374.63;12211246;19;20018;-82
2022/08/18 06:11:36;;;;;;;16.02;6.82;;;;;;;21.70;77.55;99377.25;12228369;19;20010;-83
2022/08/18 06:15:51;;;;;;;8.52;6.35;;;;;;;21.72;77.91;99369.34;12229578;19;20020;-82
2022/08/18 06:20:09;;;;;;;11.55;7.00;;;;;;;21.74;77.95;99367.00;12205639;19;20014;-83
2022/08/18 06:24:26;;;;;;;9.95;6.68;;;;;;;21.77;77.79;99366.38;12223462;19;20490;-83
2022/08/18 06:28:44;;;;;;;9.48;6.82;;;;;;;21.77;78.15;99365.50;12225819;19;20013;-81
2022/08/18 06:32:55;;;;;;;12.90;7.00;;;;;;;21.72;78.84;99377.75;12227807;19;20006;-83
2022/08/18 06:37:08;;;;;;;16.50;6.80;;;;;;;21.72;79.31;99380.56;12232238;19;20014;-79
2022/08/18 06:41:41;;;;;;;20.10;7.90;;;;;;;21.64;79.86;99375.78;12206010;19;20010;-80
2022/08/18 06:45:50;;;;;;;11.27;6.95;;;;;;;21.60;81.05;99377.63;12227565;19;20014;-81
2022/08/18 06:50:07;;;;;;;9.80;7.22;;;;;;;21.57;82.02;99376.31;12206895;19;20348;-84
2022/08/18 06:54:20;;;;;;;9.70;7.05;;;;;;;21.57;81.87;99383.91;12222301;19;20014;-82
2022/08/18 06:58:29;;;;;;;11.82;7.03;;;;;;;21.55;81.95;99377.81;12225019;19;20031;-84
2022/08/18 07:02:31;;;;;;;11.07;7.25;;;;;;;21.57;81.79;99390.34;12204518;19;20050;-80
2022/08/18 07:06:37;;;;;;;9.25;7.07;;;;;;;21.58;82.09;99396.75;12220283;19;20110;-84
2022/08/18 07:10:51;;;;;;;9.27;6.75;;;;;;;21.60;82.14;99389.66;12203664;19;20008;-84
2022/08/18 07:15:01;;;;;;;14.48;6.97;;;;;;;21.61;82.29;99407.31;12221829;19;20117;-79
2022/08/18 07:19:10;;;;;;;11.40;7.32;;;;;;;21.60;82.74;99405.66;12231697;19;20014;-83
2022/08/18 07:23:28;;;;;;;10.27;6.95;;;;;;;21.53;84.11;99413.75;12208846;19;20014;-81
2022/08/18 07:27:50;;;;;;;10.63;7.90;;;;;;;21.43;84.86;99419.72;12229533;19;20007;-83
2022/08/18 07:31:55;;;;;;;16.50;8.18;;;;;;;21.32;86.32;99422.81;12203273;19;20007;-83
2022/08/18 07:36:03;;;;;;;14.65;8.43;;;;;;;21.21;88.30;99427.13;12225734;19;20006;-84
2022/08/18 07:40:25;;;;;;;17.83;9.52;;;;;;;21.14;89.76;99437.97;12232553;19;20011;-86
2022/08/18 07:44:35;;;;;;;13.18;9.88;;;;;;;21.01;92.92;99453.81;12201833;19;20088;-86
2022/08/18 07:48:36;;;;;;;12.85;9.95;;;;;;;20.88;94.90;99461.22;12224233;19;20003;-86
2022/08/18 07:53:10;;;;;;;16.63;11.10;;;;;;;20.91;97.15;99456.91;12197503;19;20026;-86
2022/08/18 07:57:36;;;;;;;14.68;11.27;;;;;;;20.97;98.75;99463.16;12222006;19;20107;-85
2022/08/18 08:01:56;;;;;;;15.70;11.07;;;;;;;21.03;99.69;99459.91;12200606;19;20010;-86
2022/08/18 08:06:08;;;;;;;18.45;12.10;;;;;;;21.09;100.00;99452.13;12222914;19;20006;-86
2022/08/18 08:10:23;;;;;;;17.40;12.18;;;;;;;21.16;100.00;99453.31;12234516;19;20014;-85
2022/08/18 08:14:38;;;;;;;17.23;11.98;;;;;;;21.23;100.00;99466.81;12206235;19;20360;-86
2022/08/18 08:18:54;;;;;;;16.77;12.20;;;;;;;21.24;100.00;99470.44;12231625;19;20011;-86
2022/08/18 08:23:05;;;;;;;15.75;12.48;;;;;;;21.25;100.00;99466.50;12212714;19;20014;-83
2022/08/18 08:27:19;;;;;;;17.63;13.35;;;;;;;21.31;100.00;99468.81;12250873;19;20014;-85
2022/08/18 08:31:38;;;;;;;17.23;12.93;;;;;;;21.50;100.00;99464.88;12239666;19;20017;-85
2022/08/18 08:35:53;;;;;;;18.15;12.73;;;;;;;21.69;100.00;99464.53;12209840;19;20010;-84
2022/08/18 08:40:01;;;;;;;17.17;12.88;;;;;;;21.80;98.41;99466.66;12235796;19;20014;-83
2022/08/18 08:44:24;;;;;;;17.33;12.18;;;;;;;21.90;97.21;99459.88;12210731;19;20038;-85
2022/08/18 08:48:30;;;;;;;14.57;11.15;;;;;;;22.00;97.36;99467.09;12233918;19;19999;-85
2022/08/18 08:53:07;;;;;;;19.15;12.05;;;;;;;22.16;97.46;99465.41;12208738;19;20365;-84
2022/08/18 08:57:11;;;;;;;19.02;12.55;;;;;;;22.22;97.33;99455.66;12229059;19;20601;-84
2022/08/18 09:01:25;;;;;;;18.88;12.10;;;;;;;22.28;95.99;99445.09;12233436;19;20408;-84
2022/08/18 09:05:40;;;;;;;17.30;12.27;;;;;;;22.49;95.79;99440.34;12207264;19;20018;-85
2022/08/18 09:10:06;;;;;;;17.38;13.50;;;;;;;22.84;95.11;99448.53;12230453;19;20003;-83
2022/08/18 09:14:34;;;;;;;18.58;13.30;;;;;;;23.17;94.00;99464.69;12213599;19;20010;-85
2022/08/18 09:18:49;;;;;;;17.98;13.98;;;;;;;23.43;93.00;99470.13;12239067;19;20406;-84
2022/08/18 09:23:12;;;;;;;20.45;14.80;;;;;;;23.33;90.81;99460.13;12221731;19;20018;-85
2022/08/18 09:27:33;;;;;;;25.20;17.40;;;;;;;23.13;92.00;99467.38;12246447;19;20014;-84
2022/08/18 09:32:19;;;;;;;25.45;17.92;;;;;;;23.03;92.68;99465.00;12211407;19;20014;-86
2022/08/18 09:36:42;;;;;;;23.52;17.25;;;;;;;23.00;93.38;99462.03;12233519;19;20482;-86
2022/08/18 09:45:39;;;;;;;27.90;19.85;;;;;;;22.81;93.65;99482.94;12227241;19;20029;-86
2022/08/18 09:49:46;;;;;;;33.10;23.92;;;;;;;22.66;93.62;99492.75;12206382;19;20011;-83
2022/08/18 09:54:13;;;;;;;36.53;24.05;;;;;;;22.48;95.43;99491.19;12232040;19;20007;-83
2022/08/18 09:58:24;;;;;;;32.83;24.38;;;;;;;22.29;97.85;99486.84;12229644;19;20038;-85
2022/08/18 10:02:30;;;;;;;33.83;23.70;;;;;;;22.27;100.00;99482.72;12205859;19;20006;-84
2022/08/18 10:06:36;;;;;;;33.40;24.67;;;;;;;22.33;100.00;99483.34;12228439;19;20022;-83
2022/08/18 10:11:11;;;;;;;30.23;22.30;;;;;;;22.36;100.00;99493.91;12207560;19;20006;-83
2022/08/18 10:15:34;;;;;;;27.63;19.55;;;;;;;22.28;100.00;99504.03;12231639;19;20018;-84
2022/08/18 10:20:06;;;;;;;22.98;18.20;;;;;;;22.14;100.00;99504.19;12208222;19;20018;-83
2022/08/18 10:24:08;;;;;;;24.55;18.02;;;;;;;22.15;99.88;99500.22;12242710;19;20018;-84
2022/08/18 10:28:56;;;;;;;27.63;18.13;;;;;;;22.32;100.00;99478.91;12246573;19;20340;-85
2022/08/18 10:33:06;;;;;;;29.88;21.50;;;;;;;22.64;99.57;99483.88;12228493;19;20014;-83
2022/08/18 10:37:21;;;;;;;27.83;18.48;;;;;;;23.19;96.99;99482.88;12241737;19;20018;-84
2022/08/18 10:41:30;;;;;;;27.63;18.92;;;;;;;23.68;93.01;99499.19;12230209;19;20010;-84
2022/08/18 10:45:52;;;;;;;22.95;18.08;;;;;;;24.09;90.19;99495.50;12230622;19;20006;-84
2022/08/18 10:50:20;;;;;;;27.48;19.40;;;;;;;24.26;88.10;99485.19;12208561;19;20011;-83
2022/08/18 10:54:47;;;;;;;27.67;18.92;;;;;;;24.29;86.40;99490.94;12223696;19;20029;-84
2022/08/18 10:59:06;;;;;;;21.10;17.13;;;;;;;24.26;87.16;99480.38;12209338;19;20074;-83
2022/08/18 11:03:19;;;;;;;24.40;19.17;;;;;;;24.31;87.74;99477.34;12262949;19;20067;-83
2022/08/18 11:07:47;;;;;;;25.83;18.75;;;;;;;24.56;85.32;99464.13;12246012;19;20015;-83
2022/08/18 11:12:00;;;;;;;23.30;17.77;;;;;;;24.72;84.61;99463.44;12260527;19;20561;-83
2022/08/18 11:16:17;;;;;;;23.30;18.13;;;;;;;24.95;82.48;99438.38;12236470;19;20095;-84
2022/08/18 11:20:22;;;;;;;27.30;20.90;;;;;;;25.17;81.72;99434.25;12221200;19;20017;-84
2022/08/18 11:24:27;;;;;;;33.67;24.83;;;;;;;25.41;79.95;99410.78;12224148;19;20015;-83
2022/08/18 11:28:28;;;;;;;36.38;28.10;;;;;;;25.42;78.21;99406.78;12223691;19;20006;-85
2022/08/18 11:32:37;;;;;;;36.80;27.95;;;;;;;25.58;77.88;99387.06;12238474;19;20035;-84
2022/08/18 11:36:43;;;;;;;44.78;32.63;;;;;;;25.74;76.47;99361.72;12241858;19;20006;-85
2022/08/18 11:41:18;;;;;;;44.92;32.55;;;;;;;25.87;75.17;99358.47;12226491;19;20014;-84
2022/08/18 11:45:23;;;;;;;46.55;31.33;;;;;;;26.15;76.04;99371.69;12234878;19;20517;-85
2022/08/18 11:49:31;;;;;;;47.38;31.73;;;;;;;26.61;75.26;99388.13;12240400;19;20035;-84
2022/08/18 11:54:03;;;;;;;37.15;28.65;;;;;;;26.98;70.91;99377.25;12220538;19;20039;-85
2022/08/18 11:58:05;;;;;;;31.27;25.35;;;;;;;27.43;66.54;99384.31;12235678;19;20015;-85
2022/08/18 12:02:27;;;;;;;27.75;22.98;;;;;;;27.95;61.60;99377.22;12209220;19;20353;-84
2022/08/18 12:06:31;;;;;;;25.25;22.05;;;;;;;28.58;60.60;99378.69;12230947;19;20010;-81
2022/08/18 12:10:35;;;;;;;20.65;18.17;;;;;;;29.05;57.42;99378.16;12210466;19;20006;-82
2022/08/18 12:15:05;;;;;;;23.95;20.33;;;;;;;29.62;53.08;99369.56;12237749;19;20002;-87
2022/08/18 12:19:18;;;;;;;23.27;19.08;;;;;;;29.77;52.23;99384.72;12236571;19;20487;-84
2022/08/18 12:23:22;;;;;;;21.80;19.50;;;;;;;30.38;50.84;99374.75;12214838;19;20014;-84
2022/08/18 12:27:26;;;;;;;23.73;18.70;;;;;;;30.83;50.54;99360.47;12237567;19;20498;-84
2022/08/18 12:31:32;;;;;;;22.65;19.90;;;;;;;30.71;48.73;99369.31;12219632;19;20019;-83
2022/08/18 12:35:48;;;;;;;23.10;20.27;;;;;;;30.45;48.64;99373.19;12238274;19;20363;-84
2022/08/18 12:39:51;;;;;;;26.42;23.15;;;;;;;30.73;47.65;99356.31;12233774;19;20384;-84
2022/08/18 12:43:55;;;;;;;22.05;19.85;;;;;;;31.00;47.81;99361.78;12214707;19;20035;-83
2022/08/18 12:48:01;;;;;;;25.80;22.02;;;;;;;31.30;45.96;99358.66;12269098;19;20010;-83
2022/08/18 12:52:05;;;;;;;21.73;18.27;;;;;;;31.06;47.59;99366.69;12272576;19;20043;-84
2022/08/18 12:56:21;;;;;;;23.88;20.17;;;;;;;30.77;47.76;99353.50;12230634;19;20011;-84
2022/08/18 13:00:22;;;;;;;24.88;21.65;;;;;;;30.37;47.08;99355.25;12255526;19;20405;-84
2022/08/18 13:04:29;;;;;;;23.55;21.05;;;;;;;30.45;45.47;99347.59;12237471;19;20456;-84
2022/08/18 13:08:32;;;;;;;25.40;19.52;;;;;;;29.94;48.14;99341.47;12233857;19;20204;-84
2022/08/18 13:12:48;;;;;;;19.73;17.67;;;;;;;30.24;48.12;99336.88;12232536;19;20019;-84
2022/08/18 13:16:51;;;;;;;19.38;16.05;;;;;;;31.22;45.74;99322.84;12226896;19;20018;-86
2022/08/18 13:20:56;;;;;;;20.17;17.95;;;;;;;32.14;41.95;99330.78;12233407;19;20010;-85
2022/08/18 13:25:05;;;;;;;16.45;14.73;;;;;;;32.08;41.37;99315.31;12224578;19;20007;-84
2022/08/18 13:29:08;;;;;;;16.83;15.02;;;;;;;32.33;41.62;99320.16;12210338;19;20010;-84
2022/08/18 13:33:11;;;;;;;19.20;17.20;;;;;;;32.50;40.49;99313.66;12228954;19;20034;-85
2022/08/18 13:37:33;;;;;;;16.65;14.68;;;;;;;32.80;40.41;99295.25;12205970;19;20014;-83
2022/08/18 13:41:34;;;;;;;20.15;17.33;;;;;;;33.30;39.73;99303.59;12230301;19;20007;-84
2022/08/18 13:45:36;;;;;;;20.48;18.48;;;;;;;33.94;38.44;99299.50;12230597;19;20007;-82
2022/08/18 13:49:40;;;;;;;20.00;17.92;;;;;;;34.54;36.94;99285.94;12206321;19;20021;-81
2022/08/18 13:53:59;;;;;;;17.13;15.43;;;;;;;34.74;36.78;99281.19;12227610;19;20122;-81
2022/08/18 13:58:21;;;;;;;17.52;15.73;;;;;;;34.51;36.14;99289.59;12230083;19;20002;-86
2022/08/18 14:02:22;;;;;;;16.85;15.02;;;;;;;33.64;36.56;99285.88;12202940;19;20135;-83
2022/08/18 14:06:27;;;;;;;13.93;12.60;;;;;;;33.15;37.05;99273.50;12226327;19;20414;-86
2022/08/18 14:10:53;;;;;;;14.88;13.40;;;;;;;33.21;37.33;99269.81;12240126;19;20017;-84
2022/08/18 14:14:55;;;;;;;16.75;14.00;;;;;;;33.32;36.54;99267.69;12266999;19;20297;-79
2022/08/18 14:27:44;;;;;;;14.45;12.90;;;;;;;31.61;38.89;99248.91;12231982;19;20347;-83
2022/08/18 14:31:57;;;;;;;12.88;11.57;;;;;;;31.47;39.07;99243.22;12208660;19;20068;-82
2022/08/18 14:35:59;;;;;;;13.18;11.88;;;;;;;31.57;38.90;99248.13;12227727;19;20021;-82
2022/08/18 14:40:10;;;;;;;16.65;13.55;;;;;;;31.58;39.23;99241.19;12230199;19;20090;-82
2022/08/18 14:44:13;;;;;;;14.93;12.00;;;;;;;31.37;38.91;99249.72;12205381;19;20021;-81
2022/08/18 14:48:26;;;;;;;13.33;11.90;;;;;;;30.99;40.06;99252.03;12225058;19;20007;-82
2022/08/18 14:52:27;;;;;;;13.30;11.90;;;;;;;30.96;39.73;99236.56;12228198;19;20047;-82
2022/08/18 14:56:30;;;;;;;13.05;11.80;;;;;;;30.81;39.26;99238.53;12214661;19;20015;-82
2022/08/18 15:00:38;;;;;;;16.35;13.48;;;;;;;30.81;38.91;99240.59;12229740;19;20491;-83
2022/08/18 15:04:54;;;;;;;13.13;11.80;;;;;;;30.33;39.85;99237.88;12206813;19;20007;-83
2022/08/18 15:08:58;;;;;;;13.48;11.77;;;;;;;29.90;40.56;99243.25;12231735;19;20463;-82
2022/08/18 15:13:00;;;;;;;13.35;11.93;;;;;;;29.59;40.45;99241.75;12230030;19;20025;-83
2022/08/18 15:17:04;;;;;;;13.23;11.35;;;;;;;29.41;40.70;99235.91;12204077;19;20002;-82
2022/08/18 15:25:43;;;;;;;12.68;11.38;;;;;;;29.33;41.82;99249.22;12200415;19;20006;-83
2022/08/18 15:29:45;;;;;;;12.65;10.63;;;;;;;29.19;42.16;99254.75;12225162;19;20015;-86
2022/08/18 15:33:47;;;;;;;17.25;10.80;;;;;;;28.99;41.94;99249.22;12220608;19;20010;-85
2022/08/18 15:37:53;;;;;;;12.05;10.10;;;;;;;28.96;42.02;99258.50;12202450;19;20013;-84
2022/08/18 15:41:56;;;;;;;11.50;9.98;;;;;;;28.82;42.05;99249.81;12225292;19;20015;-83
2022/08/18 15:45:59;;;;;;;12.13;9.43;;;;;;;28.66;42.03;99240.72;12225409;19;20003;-85
2022/08/18 15:50:04;;;;;;;10.55;9.48;;;;;;;28.67;42.28;99237.47;12202327;19;20340;-85
2022/08/18 15:54:26;;;;;;;11.93;9.07;;;;;;;28.51;42.61;99232.03;12226529;19;20022;-84
2022/08/18 15:58:27;;;;;;;12.18;9.70;;;;;;;28.40;42.63;99225.34;12229265;19;20019;-83
2022/08/18 16:02:30;;;;;;;;;;;;;;;28.45;42.15;99222.22;12214848;19;20010;-81
2022/08/18 16:06:33;;;;;;;11.80;9.23;;;;;;;28.52;41.45;99224.34;12224333;19;20414;-82
2022/08/18 16:10:38;;;;;;;10.88;8.40;;;;;;;28.44;41.50;99219.75;12200360;19;20467;-82
2022/08/18 16:14:39;;;;;;;10.68;8.45;;;;;;;28.27;42.36;99219.13;12221357;19;20023;-84
2022/08/18 16:18:46;;;;;;;9.77;7.55;;;;;;;28.32;41.42;99218.78;12221995;19;20062;-83
2022/08/18 16:22:47;;;;;;;9.10;8.15;;;;;;;28.21;42.04;99222.69;12198133;19;20018;-83
2022/08/18 16:26:50;;;;;;;8.65;7.40;;;;;;;28.12;41.89;99214.47;12229717;19;20027;-83
2022/08/18 16:30:53;;;;;;;11.07;8.50;;;;;;;28.13;41.64;99211.22;12238883;19;20020;-80
2022/08/18 16:34:55;;;;;;;10.63;9.38;;;;;;;28.15;41.94;99214.50;12205122;19;20094;-82
2022/08/18 16:38:56;;;;;;;9.15;8.13;;;;;;;28.17;41.96;99233.97;12226800;19;20400;-82
2022/08/18 16:42:59;;;;;;;;;;;;;;;28.03;41.78;99230.91;12224417;19;20027;-81
2022/08/18 16:47:03;;;;;;;9.93;8.02;;;;;;;28.12;42.30;99234.28;12202773;19;20419;-83
2022/08/18 16:51:05;;;;;;;14.20;9.77;;;;;;;28.07;41.58;99235.41;12223670;19;20069;-83
2022/08/18 16:55:11;;;;;;;11.52;9.93;;;;;;;27.87;41.96;99236.72;12236372;19;20038;-82
2022/08/18 17:07:53;;;;;;;14.77;12.45;;;;;;;27.12;44.35;99235.34;12205767;19;20886;-83
2022/08/18 17:11:56;;;;;;;15.18;13.20;;;;;;;26.91;45.17;99236.56;12227653;19;20010;-82
2022/08/18 17:15:58;;;;;;;16.40;13.83;;;;;;;26.74;45.39;99235.03;12223868;19;20014;-81
2022/08/18 17:20:00;;;;;;;17.57;13.57;;;;;;;26.54;45.54;99236.22;12207238;19;20248;-82
2022/08/18 17:24:07;;;;;;;19.35;14.25;;;;;;;26.37;46.00;99232.59;12228820;19;19998;-86
2022/08/18 17:28:12;;;;;;;18.38;14.25;;;;;;;26.23;46.40;99235.09;12229948;19;20337;-84
2022/08/18 17:32:27;;;;;;;20.70;13.73;;;;;;;26.08;46.56;99230.31;12205257;19;20014;-81
2022/08/18 17:36:41;;;;;;;16.67;13.95;;;;;;;25.97;46.92;99226.41;12226860;19;20022;-81
2022/08/18 17:40:56;;;;;;;20.80;14.68;;;;;;;25.88;47.53;99238.75;12207380;19;20014;-82
2022/08/18 17:45:03;;;;;;;19.00;14.57;;;;;;;25.75;48.24;99242.81;12225517;19;20013;-87
2022/08/18 17:49:13;;;;;;;21.13;14.48;;;;;;;25.68;48.94;99240.63;12228198;19;20014;-84
2022/08/18 17:53:15;;;;;;;23.30;15.65;;;;;;;25.62;49.04;99246.94;12208755;19;20073;-80
2022/08/18 17:57:22;;;;;;;;;;;;;;;25.54;49.07;99245.09;12231216;19;20022;-81
2022/08/18 18:01:25;;;;;;;20.77;15.70;;;;;;;25.53;49.73;99238.66;12234732;19;19919;-80
2022/08/18 18:05:37;;;;;;;26.08;17.10;;;;;;;25.46;50.19;99244.09;12209692;19;20077;-81
2022/08/18 18:09:39;;;;;;;21.53;16.07;;;;;;;25.40;50.15;99256.81;12230830;19;20415;-82
2022/08/18 18:13:41;;;;;;;24.93;17.37;;;;;;;25.30;51.20;99244.09;12209480;19;20006;-82
2022/08/18 18:17:42;;;;;;;23.70;18.23;;;;;;;25.28;51.26;99248.44;12229459;19;20002;-81
2022/08/18 18:21:59;;;;;;;22.27;16.57;;;;;;;25.19;52.32;99245.78;12228642;19;20509;-82
2022/08/18 18:26:18;;;;;;;22.00;17.83;;;;;;;25.10;52.55;99248.75;12205332;19;20002;-80
2022/08/18 18:30:22;;;;;;;30.88;18.80;;;;;;;25.01;53.29;99246.09;12227180;19;20014;-83
2022/08/18 18:34:31;;;;;;;25.10;18.23;;;;;;;24.89;53.79;99248.97;12238322;19;20075;-83
2022/08/18 18:38:36;;;;;;;22.23;17.70;;;;;;;24.78;54.15;99245.06;12211145;19;20014;-86
2022/08/18 18:42:38;;;;;;;24.02;18.02;;;;;;;24.66;55.40;99240.28;12229903;19;20022;-85
2022/08/18 18:46:51;;;;;;;24.13;18.30;;;;;;;24.56;55.82;99241.59;12202606;19;20379;-82
2022/08/18 18:51:05;;;;;;;21.60;16.52;;;;;;;24.43;56.16;99248.47;12226411;19;20007;-82
2022/08/18 18:55:18;;;;;;;24.15;18.35;;;;;;;24.35;56.70;99257.81;12226399;19;20002;-81
2022/08/18 18:59:48;;;;;;;22.45;17.33;;;;;;;24.27;57.26;99262.44;12204060;19;20015;-82
2022/08/18 19:04:06;;;;;;;25.08;17.92;;;;;;;24.14;58.93;99266.44;12224101;19;20555;-82
2022/08/18 19:08:20;;;;;;;23.40;18.02;;;;;;;24.05;59.18;99271.38;12198929;19;20027;-82
2022/08/18 19:12:29;;;;;;;24.25;17.65;;;;;;;24.02;59.33;99278.53;12221498;19;20502;-81
2022/08/18 19:16:38;;;;;;;21.33;17.30;;;;;;;24.04;59.51;99276.19;12199996;19;20027;-81
2022/08/18 19:20:46;;;;;;;25.25;16.67;;;;;;;24.05;59.31;99283.44;12269361;19;20026;-82
2022/08/18 19:25:36;;;;;;;21.23;16.15;;;;;;;24.06;59.81;99301.16;12231059;19;20066;-82
2022/08/18 19:29:42;;;;;;;23.85;16.83;;;;;;;24.04;60.37;99300.69;12201594;19;20027;-82
2022/08/18 19:33:50;;;;;;;21.35;15.63;;;;;;;23.97;60.27;99306.88;12223393;19;20002;-82
2022/08/18 19:38:06;;;;;;;20.40;15.38;;;;;;;23.96;60.10;99310.06;12204379;19;20022;-82
2022/08/18 19:42:19;;;;;;;19.67;15.55;;;;;;;23.92;60.27;99301.53;12225523;19;20050;-82
2022/08/18 19:46:36;;;;;;;17.15;13.60;;;;;;;23.87;60.99;99305.38;12229154;19;20010;-82
2022/08/18 19:50:51;;;;;;;24.50;14.57;;;;;;;23.79;61.51;99306.28;12215191;19;20011;-82